Weather
Algoa Flying ClubBookingsEnt 1064(rendered 2017-01-19 00:16:38) Member: Guest [54.163.149.151- private]
Go back one day  Today  Go forward one day
00h00-24h00  00h00-12h00  12h00-24h00  06h00-22h00  08h00-18h00   Bookingsheet Key 

Sunrise: 05:26B

Full view Bookings for Thursday, 19th January 2017

AFC WEEKEND AWAY 24-26 FEB 2017 - SEE YOU THERE

Sunset: 19:30B

 06h0007h0008h0009h0010h0011h0012h0013h0014h0015h0016h0017h0018h0019h0020h0021h00

ZU-WCG

Airplane company NTCA

Booked

Booked

Booked

ZS-KEO

Cessna C152 Single Engine

ZS-MXS

Cessna C152 Single Engine

ZS-PKO

Cessna C152 Single Engine

Booked

ZS-PKS

Cessna C152 Single Engine

ZS-KSF

Cessna C172 Single Engine 4 seater

ZS-MBP

Cessna C172 Single Engine 4 seater

Booked

Booked

Booked

ZS-KND

Cessna C72R Complex Single Engine

Elite S812 SE

Elite Simulators FNPTII

Elite S812 ME

Elite Simulators FNPT II

ZS-IHX

Beechcraft Multi Engine Piston

Booked

Booked

FAPE METAR 182200Z 24029G39KT CAVOK 20/17 Q1008 NOSIG
FAGG METAR 182100Z AUTO 27011KT 9999 BKN023/// BKN031/// 20/17 Q1013

Clayton Staples

CEO / Flight Instructor Gr II

Booked

Booked

Booked

Booked

Booked

Mike Thompson

Chief Flight Instructor

Booked

Booked

Booked

Russell Abrey

Flight Instructor Gr II

Alex Todd

Flight Instructor Gr ll

Russell Phillips

Flight Instructor Gr II

Dave Anderson

Flight Instructor Gr II

Eric van der Merwe

Flight Instructor GrII

Abraham Muhumuza

Ground School

Stephan Smit

MADIBA SIM STUDENTS ONLY

Sophia Sudak

TEFL ENGLISH TEACHER

George Stewart

DFE

Tony van Vliet

DFE

FAPE TAF 181600Z 1818/1918 09010KT CAVOK    BECMG 1819/1821 24025G35KT    TEMPO 1821/1903 24030G45KT    BECMG 1903/1905 BKN012    TEMPO 1904/1906 BKN006    BECMG 1910/1912 23018KT SCT025    TX25/1912ZTN19/1903Z
FAGG TAF 181600Z 1818/1918 25008KT 9999 SCT012 BKN020    PROB30 TEMPO 1904/1912 4000 -RA BKN010    BECMG 1909/1911 18012KT    TX23/1912ZTN18/1904Z

Exam Station 1

CAA Exams

Exam Station 2

CAA Exams

Exam Station 3

CAA Exams

Upstairs Lecture

Upstairs

Down Lecture Roo

Downstairs

Logger

GPS Logger

Clubhouse

Functions

Braai Area

Outdoor Braai

Gremlins Grotto

Pub

 06h0007h0008h0009h0010h0011h0012h0013h0014h0015h0016h0017h0018h0019h0020h0021h00

index.php last modified on Wed 13 Jun 2012 7:48 PM